createdAt,value
2023-02-13T00:00:23.005Z,103935.00
2023-02-13T00:02:49.606Z,103931.44
2023-02-13T00:05:16.249Z,103927.88
2023-02-13T00:07:42.803Z,103931.44
2023-02-13T00:10:09.655Z,103924.09
2023-02-13T00:12:36.502Z,103931.22
2023-02-13T00:15:03.682Z,103926.59
2023-02-13T00:17:30.550Z,103928.50
2023-02-13T00:19:57.030Z,103920.75
2023-02-13T00:22:24.681Z,103922.44
2023-02-13T00:24:51.179Z,103920.75
2023-02-13T00:27:17.775Z,103912.34
2023-02-13T00:29:45.774Z,103910.91
2023-02-13T00:32:14.630Z,103921.19
2023-02-13T00:34:41.190Z,103918.69
2023-02-13T00:37:07.602Z,103908.63
2023-02-13T00:39:33.997Z,103908.63
2023-02-13T00:42:00.479Z,103912.41
2023-02-13T00:44:27.024Z,103905.91
2023-02-13T00:46:54.155Z,103910.75
2023-02-13T00:49:23.703Z,103909.06
2023-02-13T00:51:50.305Z,103904.69
2023-02-13T00:54:16.904Z,103908.22
2023-02-13T00:56:43.898Z,103902.56
2023-02-13T00:59:12.665Z,103899.84
2023-02-13T01:01:39.193Z,103903.16
2023-02-13T01:04:06.715Z,103895.00
2023-02-13T01:06:33.130Z,103894.38
2023-02-13T01:08:59.812Z,103897.34
2023-02-13T01:11:29.274Z,103908.69
2023-02-13T01:13:55.830Z,103905.94
2023-02-13T01:16:23.562Z,103905.34
2023-02-13T01:18:50.138Z,103908.28
2023-02-13T01:21:23.308Z,103905.78
2023-02-13T01:23:52.393Z,103902.47
2023-02-13T01:26:22.952Z,103903.91
2023-02-13T01:28:54.596Z,103906.63
2023-02-13T01:31:22.067Z,103903.31
2023-02-13T01:33:50.821Z,103899.34
2023-02-13T01:36:24.569Z,103899.13
2023-02-13T01:39:12.369Z,103887.41
2023-02-13T01:41:39.478Z,103898.31
2023-02-13T01:44:43.535Z,103907.31
2023-02-13T01:47:12.683Z,103890.13
2023-02-13T01:49:41.014Z,103889.50
2023-02-13T01:52:10.031Z,103884.06
2023-02-13T01:54:36.634Z,103882.41
2023-02-13T01:57:18.248Z,103885.13
2023-02-13T01:59:51.399Z,103883.66
2023-02-13T02:02:19.859Z,103883.44
2023-02-13T02:04:48.617Z,103891.00
2023-02-13T02:07:50.238Z,103883.91
2023-02-13T02:10:21.758Z,103883.66
2023-02-13T02:13:07.671Z,103886.63
2023-02-13T02:15:34.966Z,103879.28
2023-02-13T02:18:01.563Z,103881.16
2023-02-13T02:20:48.842Z,103876.78
2023-02-13T02:23:33.982Z,103877.81
2023-02-13T02:26:26.998Z,103874.50
2023-02-13T02:29:13.794Z,103874.50
2023-02-13T02:31:51.926Z,103874.03
2023-02-13T02:34:24.606Z,103875.94
2023-02-13T02:37:27.301Z,103877.38
2023-02-13T02:40:09.379Z,103874.88
2023-02-13T02:42:57.416Z,103868.81
2023-02-13T02:45:50.576Z,103872.81
2023-02-13T02:49:05.714Z,103874.50
2023-02-13T02:51:52.822Z,103877.81
2023-02-13T02:54:56.054Z,103865.88
2023-02-13T02:57:50.727Z,103859.81
2023-02-13T03:00:40.984Z,103867.16
2023-02-13T03:03:39.027Z,103871.59
2023-02-13T03:06:16.727Z,103866.16
2023-02-13T03:09:12.847Z,103859.63
2023-02-13T03:11:58.020Z,103865.31
2023-02-13T03:14:27.329Z,103864.03
2023-02-13T03:17:14.001Z,103858.59
2023-02-13T03:20:26.097Z,103854.56
2023-02-13T03:23:43.478Z,103872.81
2023-02-13T03:26:50.698Z,103872.81
2023-02-13T03:30:02.668Z,103871.16
2023-02-13T03:32:39.587Z,103868.88
2023-02-13T03:35:56.279Z,103874.31
2023-02-13T03:38:42.964Z,103867.19
2023-02-13T03:41:21.026Z,103870.16
2023-02-13T03:44:16.038Z,103865.69
2023-02-13T03:46:47.619Z,103875.75
2023-02-13T03:49:43.504Z,103872.81
2023-02-13T03:52:25.220Z,103869.03
2023-02-13T03:55:35.854Z,103874.09
2023-02-13T03:58:32.961Z,103872.22
2023-02-13T04:01:02.448Z,103870.09
2023-02-13T04:03:39.142Z,103870.94
2023-02-13T04:06:11.558Z,103858.13
2023-02-13T04:08:41.063Z,103851.47
2023-02-13T04:11:11.282Z,103862.38
2023-02-13T04:13:52.558Z,103862.38
2023-02-13T04:16:24.635Z,103861.31
2023-02-13T04:18:52.794Z,103861.53
2023-02-13T04:21:19.304Z,103857.97
2023-02-13T04:23:45.782Z,103861.97
2023-02-13T04:26:18.292Z,103864.69
2023-02-13T04:28:44.836Z,103863.88
2023-02-13T04:31:14.827Z,103863.88
2023-02-13T04:33:41.595Z,103861.13
2023-02-13T04:36:08.653Z,103855.91
2023-02-13T04:38:36.357Z,103859.91
2023-02-13T04:41:02.923Z,103866.19
2023-02-13T04:43:29.498Z,103858.63
2023-02-13T04:45:56.163Z,103856.75
2023-02-13T04:48:22.805Z,103859.69
2023-02-13T04:50:49.229Z,103851.97
2023-02-13T04:53:15.670Z,103856.78
2023-02-13T04:55:50.582Z,103854.91
2023-02-13T04:58:17.054Z,103850.06
2023-02-13T05:00:43.874Z,103846.50
2023-02-13T05:03:12.597Z,103848.41
2023-02-13T05:05:39.734Z,103832.25
2023-02-13T05:08:08.150Z,103830.38
2023-02-13T05:10:35.077Z,103828.13
2023-02-13T05:13:03.196Z,103835.22
2023-02-13T05:15:29.774Z,103829.75
2023-02-13T05:17:56.382Z,103828.13
2023-02-13T05:20:22.967Z,103834.41
2023-02-13T05:23:10.082Z,103837.34
2023-02-13T05:25:39.761Z,103822.28
2023-02-13T05:28:27.563Z,103822.06
2023-02-13T05:30:54.416Z,103816.63
2023-02-13T05:33:21.037Z,103830.25
2023-02-13T05:35:47.559Z,103829.41
2023-02-13T05:38:13.987Z,103825.84
2023-02-13T05:40:40.601Z,103833.19
2023-02-13T05:43:07.111Z,103824.19
2023-02-13T05:45:35.021Z,103833.19
2023-02-13T05:48:01.439Z,103830.69
2023-02-13T05:50:28.061Z,103837.78
2023-02-13T05:52:57.284Z,103831.28
2023-02-13T05:55:23.774Z,103834.03
2023-02-13T05:57:50.289Z,103825.00
2023-02-13T06:00:17.374Z,103827.50
2023-02-13T06:02:43.879Z,103824.78
2023-02-13T06:05:12.988Z,103820.41
2023-02-13T06:07:39.501Z,103827.72
2023-02-13T06:10:06.660Z,103827.97
2023-02-13T06:12:33.229Z,103829.41
2023-02-13T06:14:59.670Z,103826.47
2023-02-13T06:17:31.317Z,103824.78
2023-02-13T06:19:58.790Z,103828.13
2023-02-13T06:22:25.262Z,103824.94
2023-02-13T06:24:51.718Z,103829.75
2023-02-13T06:27:18.205Z,103825.75
2023-02-13T06:29:44.631Z,103830.38
2023-02-13T06:32:14.507Z,103827.66
2023-02-13T06:34:43.660Z,103828.97
2023-02-13T06:37:11.165Z,103840.66
2023-02-13T06:39:37.585Z,103833.94
2023-02-13T06:42:06.512Z,103842.34
2023-02-13T06:44:32.950Z,103836.44
2023-02-13T06:46:59.541Z,103839.16
2023-02-13T06:49:27.672Z,103831.38
2023-02-13T06:51:54.127Z,103837.66
2023-02-13T06:54:28.689Z,103845.00
2023-02-13T06:57:01.600Z,103837.66
2023-02-13T06:59:28.041Z,103839.34
2023-02-13T07:01:54.470Z,103835.38
2023-02-13T07:04:20.951Z,103851.50
2023-02-13T07:06:47.487Z,103839.78
2023-02-13T07:09:13.934Z,103846.91
2023-02-13T07:11:40.459Z,103849.84
2023-02-13T07:14:07.743Z,103855.28
2023-02-13T07:16:34.291Z,103856.97
2023-02-13T07:19:00.852Z,103859.47
2023-02-13T07:21:27.787Z,103864.09
2023-02-13T07:23:54.325Z,103861.97
2023-02-13T07:26:21.189Z,103859.03
2023-02-13T07:28:47.744Z,103854.19
2023-02-13T07:31:14.317Z,103853.34
2023-02-13T07:33:40.881Z,103847.06
2023-02-13T07:36:07.831Z,103846.00
2023-02-13T07:38:35.272Z,103844.94
2023-02-13T07:41:03.401Z,103851.00
2023-02-13T07:43:30.787Z,103844.72
2023-02-13T07:46:02.102Z,103851.63
2023-02-13T07:48:30.939Z,103845.97
2023-02-13T07:51:07.429Z,103850.97
2023-02-13T07:53:35.802Z,103859.53
2023-02-13T07:56:07.278Z,103860.16
2023-02-13T07:58:33.876Z,103864.31
2023-02-13T08:01:11.225Z,103867.41
2023-02-13T08:03:38.713Z,103867.78
2023-02-13T08:06:06.456Z,103871.97
2023-02-13T08:08:33.180Z,103869.41
2023-02-13T08:11:45.384Z,103877.75
2023-02-13T08:14:11.818Z,103878.75
2023-02-13T08:16:38.432Z,103882.91
2023-02-13T08:19:08.315Z,103890.66
2023-02-13T08:21:35.338Z,103896.22
2023-02-13T08:24:01.837Z,103885.69
2023-02-13T08:26:31.662Z,103891.53
2023-02-13T08:28:58.912Z,103888.75
2023-02-13T08:31:25.576Z,103884.28
2023-02-13T08:33:52.257Z,103885.28
2023-02-13T08:36:20.092Z,103887.31
2023-02-13T08:38:50.153Z,103891.25
2023-02-13T08:41:20.211Z,103888.06
2023-02-13T08:46:31.194Z,103876.59
2023-02-13T08:49:02.761Z,103887.22
2023-02-13T08:51:29.263Z,103891.06
2023-02-13T08:53:55.798Z,103887.09
2023-02-13T08:56:22.327Z,103885.50
2023-02-13T08:58:50.041Z,103881.38
2023-02-13T09:01:17.000Z,103885.69
2023-02-13T09:03:43.499Z,103887.31
2023-02-13T09:06:10.082Z,103886.13
2023-02-13T09:08:38.771Z,103886.63
2023-02-13T09:11:07.644Z,103880.75
2023-02-13T09:13:39.204Z,103885.34
2023-02-13T09:16:07.324Z,103886.19
2023-02-13T09:18:37.171Z,103881.00
2023-02-13T09:21:06.619Z,103884.69
2023-02-13T09:23:37.898Z,103888.72
2023-02-13T09:26:06.402Z,103887.66
2023-02-13T09:28:34.881Z,103888.13
2023-02-13T09:31:19.587Z,103883.84
2023-02-13T09:33:48.663Z,103882.66
2023-02-13T09:36:19.936Z,103885.19
2023-02-13T09:38:48.437Z,103892.81
2023-02-13T09:41:17.351Z,103882.56
2023-02-13T09:43:52.209Z,103876.69
2023-02-13T09:46:39.770Z,103880.47
2023-02-13T09:49:19.643Z,103872.00
2023-02-13T09:51:55.592Z,103873.75
2023-02-13T09:54:22.119Z,103871.09
2023-02-13T09:57:05.311Z,103879.91
2023-02-13T09:59:50.915Z,103864.78
2023-02-13T10:02:42.159Z,103873.13
2023-02-13T10:05:23.923Z,103880.06
2023-02-13T10:08:09.178Z,103876.97
2023-02-13T10:11:11.269Z,103868.06
2023-02-13T10:14:06.297Z,103878.81
2023-02-13T10:16:40.561Z,103880.63
2023-02-13T10:19:30.957Z,103876.47
2023-02-13T10:22:20.593Z,103869.84
2023-02-13T10:25:18.299Z,103870.69
2023-02-13T10:27:54.059Z,103874.50
2023-02-13T10:30:49.258Z,103867.47
2023-02-13T10:33:28.523Z,103872.06
2023-02-13T10:36:16.673Z,103867.19
2023-02-13T10:38:59.599Z,103863.91
2023-02-13T10:41:32.165Z,103863.78
2023-02-13T10:44:24.074Z,103859.19
2023-02-13T10:47:10.647Z,103858.13
2023-02-13T10:49:45.846Z,103856.19
2023-02-13T10:52:24.395Z,103849.34
2023-02-13T10:55:03.083Z,103858.88
2023-02-13T10:57:51.327Z,103844.50
2023-02-13T11:01:02.810Z,103852.53
2023-02-13T11:03:32.752Z,103852.28
2023-02-13T11:06:05.084Z,103842.16
2023-02-13T11:08:35.487Z,103853.59
2023-02-13T11:11:49.212Z,103839.03
2023-02-13T11:17:23.719Z,103832.91
2023-02-13T11:19:59.930Z,103835.91
2023-02-13T11:22:40.135Z,103832.19
2023-02-13T11:25:34.812Z,103826.19
2023-02-13T11:28:27.541Z,103824.72
2023-02-13T11:31:26.475Z,103820.59
2023-02-13T11:33:53.827Z,103819.66
2023-02-13T11:37:22.928Z,103827.59
2023-02-13T11:40:39.576Z,103821.69
2023-02-13T11:43:07.304Z,103812.41
2023-02-13T11:45:34.323Z,103817.75
2023-02-13T11:48:03.599Z,103802.31
2023-02-13T11:50:35.081Z,103805.66
2023-02-13T11:53:08.063Z,103801.66
2023-02-13T11:55:39.777Z,103802.19
2023-02-13T11:58:12.618Z,103802.34
2023-02-13T12:00:41.458Z,103795.22
2023-02-13T12:03:29.530Z,103791.09
2023-02-13T12:06:02.545Z,103789.31
2023-02-13T12:08:30.733Z,103787.19
2023-02-13T12:10:59.358Z,103786.66
2023-02-13T12:13:38.978Z,103781.03
2023-02-13T12:16:21.384Z,103778.72
2023-02-13T12:18:52.887Z,103777.75
2023-02-13T12:21:31.570Z,103781.28
2023-02-13T12:24:03.936Z,103775.78
2023-02-13T12:26:44.475Z,103773.41
2023-02-13T12:29:45.572Z,103770.91
2023-02-13T12:32:36.491Z,103774.59
2023-02-13T12:35:18.985Z,103777.97
2023-02-13T12:38:06.820Z,103781.44
2023-02-13T12:41:03.928Z,103772.16
2023-02-13T12:44:01.366Z,103770.13
2023-02-13T12:46:49.169Z,103764.44
2023-02-13T12:49:18.425Z,103767.03
2023-02-13T12:52:04.405Z,103764.53
2023-02-13T12:54:30.914Z,103765.94
2023-02-13T12:57:36.647Z,103768.66
2023-02-13T13:00:14.816Z,103761.59
2023-02-13T13:02:56.867Z,103767.13
2023-02-13T13:05:58.740Z,103752.81
2023-02-13T13:09:00.411Z,103748.38
2023-02-13T13:11:52.005Z,103744.75
2023-02-13T13:14:24.312Z,103743.38
2023-02-13T13:16:54.464Z,103738.97
2023-02-13T13:19:32.115Z,103738.44
2023-02-13T13:22:20.030Z,103732.69
2023-02-13T13:25:01.770Z,103729.44
2023-02-13T13:27:33.842Z,103725.25
2023-02-13T13:30:13.823Z,103722.53
2023-02-13T13:32:43.506Z,103721.44
2023-02-13T13:35:21.477Z,103709.25
2023-02-13T13:38:06.546Z,103710.13
2023-02-13T13:41:00.434Z,103706.81
2023-02-13T13:43:43.566Z,103705.69
2023-02-13T13:46:32.020Z,103705.97
2023-02-13T13:49:26.189Z,103705.97
2023-02-13T13:52:08.873Z,103694.13
2023-02-13T13:54:36.758Z,103698.28
2023-02-13T13:57:03.792Z,103689.19
2023-02-13T13:59:35.885Z,103694.97
2023-02-13T14:02:23.740Z,103697.19
2023-02-13T14:05:14.445Z,103694.69
2023-02-13T14:07:42.010Z,103692.22
2023-02-13T14:10:21.659Z,103692.22
2023-02-13T14:12:57.046Z,103690.84
2023-02-13T14:15:38.861Z,103685.88
2023-02-13T14:18:15.282Z,103684.47
2023-02-13T14:20:50.823Z,103690.00
2023-02-13T14:23:34.458Z,103688.56
2023-02-13T14:26:27.171Z,103677.31
2023-02-13T14:29:03.775Z,103673.69
2023-02-13T14:31:39.266Z,103684.16
2023-02-13T14:34:22.973Z,103683.00
2023-02-13T14:37:30.407Z,103677.19
2023-02-13T14:40:18.591Z,103679.13
2023-02-13T14:42:53.724Z,103676.38
2023-02-13T14:45:29.578Z,103678.81
2023-02-13T14:47:58.322Z,103675.25
2023-02-13T14:50:48.662Z,103668.34
2023-02-13T14:53:47.591Z,103664.78
2023-02-13T14:56:18.854Z,103665.03
2023-02-13T14:59:01.355Z,103663.38
2023-02-13T15:01:35.875Z,103665.78
2023-02-13T15:04:26.651Z,103669.06
2023-02-13T15:06:56.910Z,103661.13
2023-02-13T15:09:35.320Z,103662.22
2023-02-13T15:12:01.958Z,103669.38
2023-02-13T15:14:36.662Z,103664.97
2023-02-13T15:17:19.447Z,103672.09
2023-02-13T15:19:49.150Z,103661.06
2023-02-13T15:22:31.820Z,103662.66
2023-02-13T15:24:58.464Z,103666.25
2023-02-13T15:27:31.464Z,103665.94
2023-02-13T15:30:16.643Z,103667.28
2023-02-13T15:32:43.473Z,103657.66
2023-02-13T15:35:35.570Z,103653.75
2023-02-13T15:38:44.114Z,103654.84
2023-02-13T15:41:24.601Z,103652.63
2023-02-13T15:44:42.505Z,103657.78
2023-02-13T15:47:37.224Z,103658.53
2023-02-13T15:50:21.310Z,103656.06
2023-02-13T15:52:57.067Z,103649.16
2023-02-13T15:55:28.405Z,103643.66
2023-02-13T15:57:59.454Z,103642.75
2023-02-13T16:00:37.084Z,103638.88
2023-02-13T16:03:54.335Z,103644.63
2023-02-13T16:07:02.509Z,103649.50
2023-02-13T16:09:57.117Z,103641.78
2023-02-13T16:12:43.310Z,103647.53
2023-02-13T16:15:33.329Z,103645.59
2023-02-13T16:18:01.181Z,103651.63
2023-02-13T16:20:37.035Z,103641.41
2023-02-13T16:27:02.683Z,103644.94
2023-02-13T16:29:35.390Z,103643.25
2023-02-13T16:32:34.360Z,103645.34
2023-02-13T16:39:32.777Z,103637.56
2023-02-13T16:42:02.112Z,103643.56
2023-02-13T16:45:23.204Z,103645.19
2023-02-13T16:48:03.802Z,103639.69
2023-02-13T16:50:40.770Z,103634.44
2023-02-13T16:53:11.678Z,103635.47
2023-02-13T16:55:41.644Z,103641.81
2023-02-13T16:58:15.326Z,103643.41
2023-02-13T17:00:41.882Z,103645.28
2023-02-13T17:03:09.371Z,103652.88
2023-02-13T17:05:36.009Z,103651.69
2023-02-13T17:08:03.860Z,103660.59
2023-02-13T17:10:34.273Z,103650.69
2023-02-13T17:13:15.162Z,103655.03
2023-02-13T17:15:46.368Z,103656.53
2023-02-13T17:18:13.050Z,103659.94
2023-02-13T17:20:42.109Z,103665.34
2023-02-13T17:23:17.225Z,103668.88
2023-02-13T17:25:51.245Z,103660.56
2023-02-13T17:28:20.987Z,103661.34
2023-02-13T17:30:53.303Z,103664.25
2023-02-13T17:33:25.459Z,103665.81
2023-02-13T17:35:52.870Z,103657.53
2023-02-13T17:38:19.397Z,103659.56
2023-02-13T17:40:48.379Z,103662.78
2023-02-13T17:43:17.542Z,103655.31
2023-02-13T17:45:45.377Z,103655.00
2023-02-13T17:48:12.739Z,103657.63
2023-02-13T17:50:39.605Z,103656.97
2023-02-13T17:53:08.584Z,103658.81
2023-02-13T17:55:38.569Z,103663.38
2023-02-13T17:58:09.177Z,103659.72
2023-02-13T18:00:36.910Z,103662.63
2023-02-13T18:03:04.294Z,103663.50
2023-02-13T18:05:33.075Z,103650.00
2023-02-13T18:08:02.371Z,103652.16
2023-02-13T18:10:32.292Z,103647.16
2023-02-13T18:13:04.035Z,103647.31
2023-02-13T18:15:35.864Z,103649.38
2023-02-13T18:18:02.371Z,103653.31
2023-02-13T18:20:28.837Z,103655.97
2023-02-13T18:22:55.413Z,103655.06
2023-02-13T18:25:22.046Z,103650.53
2023-02-13T18:27:49.960Z,103659.47
2023-02-13T18:30:18.961Z,103657.47
2023-02-13T18:32:50.310Z,103670.56
2023-02-13T18:35:17.573Z,103667.38
2023-02-13T18:37:45.122Z,103661.22
2023-02-13T18:40:17.617Z,103664.06
2023-02-13T18:42:44.492Z,103657.88
2023-02-13T18:45:12.172Z,103659.44
2023-02-13T18:47:40.134Z,103658.25
2023-02-13T18:50:08.155Z,103658.75
2023-02-13T18:52:35.231Z,103661.38
2023-02-13T18:55:02.241Z,103659.94
2023-02-13T18:57:28.757Z,103661.72
2023-02-13T18:59:55.354Z,103658.88
2023-02-13T19:02:21.864Z,103661.97
2023-02-13T19:04:51.595Z,103658.78
2023-02-13T19:07:19.655Z,103656.16
2023-02-13T19:09:46.133Z,103660.91
2023-02-13T19:12:12.674Z,103658.03
2023-02-13T19:14:39.629Z,103643.09
2023-02-13T19:17:08.250Z,103650.56
2023-02-13T19:19:39.519Z,103647.94
2023-02-13T19:22:07.539Z,103639.16
2023-02-13T19:24:34.255Z,103646.97
2023-02-13T19:27:00.736Z,103644.69
2023-02-13T19:29:27.252Z,103641.97
2023-02-13T19:31:54.522Z,103640.91
2023-02-13T19:34:23.409Z,103640.91
2023-02-13T19:36:49.946Z,103644.47
2023-02-13T19:39:17.561Z,103642.56
2023-02-13T19:41:47.306Z,103642.44
2023-02-13T19:44:14.615Z,103641.25
2023-02-13T19:46:41.254Z,103645.75
2023-02-13T19:49:08.099Z,103643.72
2023-02-13T19:51:34.921Z,103647.72
2023-02-13T19:54:04.199Z,103652.09
2023-02-13T19:56:32.492Z,103654.44
2023-02-13T19:58:59.051Z,103651.78
2023-02-13T20:01:32.920Z,103652.84
2023-02-13T20:04:00.645Z,103656.03
2023-02-13T20:06:33.942Z,103645.59
2023-02-13T20:09:01.824Z,103645.69
2023-02-13T20:11:28.958Z,103653.47
2023-02-13T20:13:57.303Z,103647.66
2023-02-13T20:16:24.224Z,103648.59
2023-02-13T20:18:52.740Z,103653.91
2023-02-13T20:21:20.695Z,103657.31
2023-02-13T20:23:51.541Z,103656.94
2023-02-13T20:26:21.307Z,103659.03
2023-02-13T20:28:49.578Z,103652.84
2023-02-13T20:31:21.880Z,103656.50
2023-02-13T20:33:50.488Z,103657.16
2023-02-13T20:36:22.790Z,103651.78
2023-02-13T20:38:54.186Z,103663.56
2023-02-13T20:41:23.536Z,103665.31
2023-02-13T20:43:50.719Z,103666.13
2023-02-13T20:46:20.158Z,103669.91
2023-02-13T20:48:50.132Z,103668.06
2023-02-13T20:51:18.239Z,103666.25
2023-02-13T20:53:46.503Z,103674.66
2023-02-13T20:56:16.104Z,103672.16
2023-02-13T20:58:45.241Z,103681.38
2023-02-13T21:01:14.286Z,103670.09
2023-02-13T21:03:42.164Z,103672.88
2023-02-13T21:06:10.544Z,103673.31
2023-02-13T21:08:37.741Z,103673.38
2023-02-13T21:11:08.858Z,103677.38
2023-02-13T21:13:38.684Z,103669.69
2023-02-13T21:16:08.405Z,103680.38
2023-02-13T21:18:36.882Z,103678.09
2023-02-13T21:21:05.289Z,103677.09
2023-02-13T21:23:34.886Z,103685.91
2023-02-13T21:26:15.861Z,103685.53
2023-02-13T21:28:46.046Z,103684.91
2023-02-13T21:31:23.661Z,103679.69
2023-02-13T21:33:50.259Z,103683.56
2023-02-13T21:36:16.880Z,103683.38
2023-02-13T21:38:43.543Z,103685.94
2023-02-13T21:41:15.754Z,103676.97
2023-02-13T21:43:46.513Z,103681.03
2023-02-13T21:46:27.956Z,103682.28
2023-02-13T21:48:57.100Z,103678.94
2023-02-13T21:51:32.205Z,103679.16
2023-02-13T21:53:59.772Z,103676.25
2023-02-13T21:56:29.313Z,103675.84
2023-02-13T21:58:56.401Z,103677.13
2023-02-13T22:01:30.555Z,103674.22
2023-02-13T22:04:00.980Z,103667.97
2023-02-13T22:06:28.373Z,103665.50
2023-02-13T22:09:08.247Z,103664.66
2023-02-13T22:11:38.407Z,103674.28
2023-02-13T22:14:07.752Z,103682.25
2023-02-13T22:16:37.015Z,103676.41
2023-02-13T22:19:07.001Z,103679.34
2023-02-13T22:21:34.634Z,103670.78
2023-02-13T22:24:01.825Z,103672.66
2023-02-13T22:26:31.280Z,103668.09
2023-02-13T22:29:06.884Z,103664.75
2023-02-13T22:31:34.169Z,103660.19
2023-02-13T22:34:04.475Z,103655.19
2023-02-13T22:36:40.156Z,103661.03
2023-02-13T22:39:10.097Z,103656.47
2023-02-13T22:41:37.669Z,103650.81
2023-02-13T22:44:04.536Z,103650.63
2023-02-13T22:46:32.378Z,103648.34
2023-02-13T22:48:59.618Z,103645.41
2023-02-13T22:51:29.280Z,103651.09
2023-02-13T22:53:57.611Z,103650.88
2023-02-13T22:56:25.830Z,103643.56
2023-02-13T22:58:55.364Z,103645.66
2023-02-13T23:01:23.925Z,103645.66
2023-02-13T23:03:50.877Z,103652.16
2023-02-13T23:06:18.249Z,103645.47
2023-02-13T23:08:45.322Z,103644.22
2023-02-13T23:11:33.469Z,103645.88
2023-02-13T23:14:00.407Z,103640.03
2023-02-13T23:16:27.169Z,103639.22
2023-02-13T23:19:00.611Z,103638.78
2023-02-13T23:21:27.037Z,103636.50
2023-02-13T23:23:53.644Z,103641.91
2023-02-13T23:26:21.232Z,103648.41
2023-02-13T23:28:47.728Z,103654.47
2023-02-13T23:31:14.361Z,103645.28
2023-02-13T23:33:40.939Z,103652.16
2023-02-13T23:36:07.833Z,103649.03
2023-02-13T23:38:34.357Z,103640.47
2023-02-13T23:41:09.851Z,103640.69
2023-02-13T23:43:36.682Z,103646.75
2023-02-13T23:46:07.516Z,103657.19
2023-02-13T23:48:34.708Z,103644.03
2023-02-13T23:51:01.979Z,103649.44
2023-02-13T23:53:28.625Z,103652.78
2023-02-13T23:55:56.417Z,103655.28
2023-02-13T23:58:23.332Z,103649.44
